createdAt,value
2022-10-01T00:00:45.475Z,62.81
2022-10-01T00:01:46.982Z,62.73
2022-10-01T00:02:48.508Z,62.84
2022-10-01T00:03:50.418Z,63.19
2022-10-01T00:04:51.902Z,63.18
2022-10-01T00:06:12.860Z,63.21
2022-10-01T00:07:15.369Z,63.57
2022-10-01T00:08:16.902Z,63.85
2022-10-01T00:09:18.351Z,63.51
2022-10-01T00:10:19.857Z,63.91
2022-10-01T00:11:22.156Z,63.78
2022-10-01T00:12:23.587Z,63.78
2022-10-01T00:13:25.540Z,64.24
2022-10-01T00:14:27.531Z,64.43
2022-10-01T00:15:28.999Z,64.55
2022-10-01T00:16:30.713Z,65.08
2022-10-01T00:17:32.616Z,64.88
2022-10-01T00:18:37.569Z,65.03
2022-10-01T00:19:38.994Z,64.89
2022-10-01T00:20:43.442Z,64.68
2022-10-01T00:21:44.899Z,64.46
2022-10-01T00:22:47.379Z,64.44
2022-10-01T00:23:53.281Z,64.15
2022-10-01T00:24:54.775Z,64.11
2022-10-01T00:25:56.391Z,64.56
2022-10-01T00:26:57.840Z,64.89
2022-10-01T00:27:59.371Z,64.89
2022-10-01T00:29:01.671Z,64.55
2022-10-01T00:30:06.819Z,64.75
2022-10-01T00:31:08.411Z,64.11
2022-10-01T00:32:09.981Z,64.00
2022-10-01T00:33:11.481Z,63.99
2022-10-01T00:34:13.777Z,64.38
2022-10-01T00:35:15.247Z,64.62
2022-10-01T00:36:16.770Z,64.78
2022-10-01T00:37:18.207Z,65.02
2022-10-01T00:38:19.647Z,65.29
2022-10-01T00:39:21.178Z,65.45
2022-10-01T00:40:22.674Z,65.45
2022-10-01T00:41:24.703Z,65.46
2022-10-01T00:42:26.855Z,65.52
2022-10-01T00:43:35.167Z,65.62
2022-10-01T00:44:37.028Z,65.27
2022-10-01T00:45:38.516Z,65.25
2022-10-01T00:46:43.385Z,65.32
2022-10-01T00:47:47.131Z,65.64
2022-10-01T00:48:59.221Z,65.80
2022-10-01T00:50:16.438Z,66.07
2022-10-01T00:51:17.952Z,65.61
2022-10-01T00:52:21.637Z,65.70
2022-10-01T00:53:23.069Z,65.93
2022-10-01T00:54:36.809Z,65.78
2022-10-01T00:55:40.095Z,65.92
2022-10-01T00:56:41.739Z,66.14
2022-10-01T00:57:43.202Z,66.18
2022-10-01T00:58:44.691Z,66.18
2022-10-01T00:59:46.123Z,66.15
2022-10-01T01:00:47.570Z,66.36
2022-10-01T01:01:49.243Z,66.68
2022-10-01T01:02:51.015Z,66.86
2022-10-01T01:03:52.458Z,67.11
2022-10-01T01:04:53.998Z,67.19
2022-10-01T01:05:55.427Z,67.50
2022-10-01T01:06:57.819Z,67.95
2022-10-01T01:08:01.598Z,67.67
2022-10-01T01:09:03.240Z,67.45
2022-10-01T01:10:04.816Z,67.52
2022-10-01T01:11:08.274Z,67.60
2022-10-01T01:12:27.987Z,67.52
2022-10-01T01:13:51.259Z,67.54
2022-10-01T01:15:11.760Z,67.81
2022-10-01T01:16:21.769Z,68.10
2022-10-01T01:17:25.071Z,67.98
2022-10-01T01:18:37.255Z,68.30
2022-10-01T01:19:50.908Z,68.20
2022-10-01T01:20:55.403Z,68.13
2022-10-01T01:22:00.308Z,68.10
2022-10-01T01:23:04.803Z,68.61
2022-10-01T01:24:15.120Z,68.68
2022-10-01T01:25:17.719Z,68.39
2022-10-01T01:26:21.187Z,68.69
2022-10-01T01:27:28.604Z,68.71
2022-10-01T01:28:31.731Z,68.63
2022-10-01T01:29:34.872Z,68.87
2022-10-01T01:30:37.124Z,68.50
2022-10-01T01:31:39.674Z,69.01
2022-10-01T01:33:11.873Z,69.01
2022-10-01T01:34:14.201Z,69.39
2022-10-01T01:35:19.291Z,69.90
2022-10-01T01:36:23.181Z,69.88
2022-10-01T01:37:26.674Z,70.00
2022-10-01T01:38:30.010Z,69.94
2022-10-01T01:39:31.995Z,70.20
2022-10-01T01:40:35.070Z,70.01
2022-10-01T01:41:37.668Z,70.61
2022-10-01T01:42:39.683Z,70.15
2022-10-01T01:43:41.856Z,70.77
2022-10-01T01:44:44.455Z,70.57
2022-10-01T01:45:45.938Z,70.63
2022-10-01T01:46:49.400Z,70.85
2022-10-01T01:47:51.035Z,70.82
2022-10-01T01:48:53.313Z,71.00
2022-10-01T01:49:54.746Z,71.70
2022-10-01T01:51:16.872Z,71.95
2022-10-01T01:52:18.442Z,71.47
2022-10-01T01:53:20.246Z,71.76
2022-10-01T01:54:21.772Z,72.24
2022-10-01T01:55:23.415Z,72.64
2022-10-01T01:56:24.880Z,72.75
2022-10-01T01:57:26.716Z,72.91
2022-10-01T01:58:28.254Z,73.15
2022-10-01T01:59:30.061Z,73.65
2022-10-01T02:00:31.495Z,73.80
2022-10-01T02:01:40.152Z,74.16
2022-10-01T02:02:43.861Z,74.53
2022-10-01T02:03:45.335Z,74.16
2022-10-01T02:05:16.146Z,74.06
2022-10-01T02:06:42.655Z,73.46
2022-10-01T02:07:44.122Z,72.67
2022-10-01T02:08:55.675Z,72.27
2022-10-01T02:10:03.006Z,72.52
2022-10-01T02:11:07.146Z,72.51
2022-10-01T02:12:30.291Z,72.24
2022-10-01T02:13:39.028Z,72.32
2022-10-01T02:14:45.115Z,71.97
2022-10-01T02:16:06.856Z,71.92
2022-10-01T02:17:10.996Z,71.58
2022-10-01T02:18:16.562Z,71.66
2022-10-01T02:19:38.815Z,71.46
2022-10-01T02:20:48.015Z,71.53
2022-10-01T02:21:49.696Z,71.28
2022-10-01T02:22:52.862Z,71.32
2022-10-01T02:23:58.108Z,71.13
2022-10-01T02:25:00.039Z,71.32
2022-10-01T02:26:19.617Z,70.89
2022-10-01T02:27:26.222Z,70.78
2022-10-01T02:28:27.957Z,70.46
2022-10-01T02:29:29.471Z,70.33
2022-10-01T02:30:31.406Z,70.16
2022-10-01T02:31:33.101Z,69.98
2022-10-01T02:32:35.491Z,70.00
2022-10-01T02:33:36.997Z,69.76
2022-10-01T02:34:38.460Z,69.55
2022-10-01T02:35:39.979Z,69.71
2022-10-01T02:36:42.104Z,69.38
2022-10-01T02:37:44.347Z,69.28
2022-10-01T02:38:45.827Z,69.48
2022-10-01T02:39:47.414Z,69.71
2022-10-01T02:40:48.888Z,69.75
2022-10-01T02:41:50.330Z,69.67
2022-10-01T02:42:55.283Z,69.68
2022-10-01T02:43:57.541Z,69.91
2022-10-01T02:45:02.618Z,69.60
2022-10-01T02:46:15.783Z,69.72
2022-10-01T02:47:34.118Z,69.55
2022-10-01T02:48:36.013Z,69.54
2022-10-01T02:49:37.498Z,69.64
2022-10-01T02:50:42.234Z,69.58
2022-10-01T02:51:46.218Z,69.75
2022-10-01T02:52:50.338Z,69.95
2022-10-01T02:53:53.484Z,70.39
2022-10-01T02:54:56.144Z,70.29
2022-10-01T02:55:57.651Z,70.15
2022-10-01T02:57:18.004Z,70.21
2022-10-01T02:58:19.482Z,69.86
2022-10-01T02:59:21.435Z,69.68
2022-10-01T03:00:23.007Z,69.69
2022-10-01T03:01:24.504Z,69.31
2022-10-01T03:02:29.606Z,69.13
2022-10-01T03:03:31.620Z,69.01
2022-10-01T03:04:33.086Z,69.19
2022-10-01T03:05:34.530Z,69.18
2022-10-01T03:06:36.131Z,68.93
2022-10-01T03:07:38.079Z,69.15
2022-10-01T03:08:39.510Z,68.70
2022-10-01T03:09:41.000Z,69.16
2022-10-01T03:10:46.023Z,69.66
2022-10-01T03:11:48.247Z,69.18
2022-10-01T03:12:51.015Z,69.10
2022-10-01T03:13:53.711Z,69.58
2022-10-01T03:14:55.351Z,69.41
2022-10-01T03:15:56.808Z,69.24
2022-10-01T03:16:58.303Z,70.01
2022-10-01T03:17:59.814Z,70.15
2022-10-01T03:19:01.384Z,70.67
2022-10-01T03:20:03.255Z,70.64
2022-10-01T03:21:04.766Z,71.10
2022-10-01T03:22:06.975Z,71.25
2022-10-01T03:23:08.503Z,71.45
2022-10-01T03:24:10.043Z,71.46
2022-10-01T03:25:11.512Z,71.93
2022-10-01T03:26:13.002Z,72.13
2022-10-01T03:27:14.445Z,71.94
2022-10-01T03:28:16.156Z,72.31
2022-10-01T03:29:17.875Z,72.48
2022-10-01T03:30:19.364Z,71.95
2022-10-01T03:31:20.875Z,71.85
2022-10-01T03:32:22.436Z,72.04
2022-10-01T03:33:23.879Z,71.98
2022-10-01T03:34:25.446Z,72.07
2022-10-01T03:35:26.954Z,71.89
2022-10-01T03:36:28.442Z,71.79
2022-10-01T03:37:29.867Z,71.65
2022-10-01T03:38:31.521Z,71.76
2022-10-01T03:39:33.020Z,71.98
2022-10-01T03:40:37.930Z,71.64
2022-10-01T03:41:39.432Z,71.39
2022-10-01T03:42:40.880Z,71.46
2022-10-01T03:43:42.354Z,71.61
2022-10-01T03:44:43.871Z,71.79
2022-10-01T03:45:45.424Z,72.13
2022-10-01T03:46:46.951Z,72.30
2022-10-01T03:47:54.326Z,72.27
2022-10-01T03:48:57.245Z,72.59
2022-10-01T03:49:58.715Z,73.28
2022-10-01T03:51:00.239Z,73.05
2022-10-01T03:52:02.568Z,73.15
2022-10-01T03:53:04.028Z,72.60
2022-10-01T03:54:05.790Z,73.22
2022-10-01T03:55:07.543Z,73.49
2022-10-01T03:56:09.050Z,73.59
2022-10-01T03:57:10.543Z,73.85
2022-10-01T03:58:11.994Z,74.05
2022-10-01T03:59:13.472Z,73.77
2022-10-01T04:00:15.218Z,73.82
2022-10-01T04:01:17.304Z,74.29
2022-10-01T04:02:19.939Z,74.70
2022-10-01T04:03:21.527Z,75.11
2022-10-01T04:04:22.986Z,75.15
2022-10-01T04:05:25.617Z,75.15
2022-10-01T04:06:27.139Z,74.78
2022-10-01T04:07:28.789Z,75.00
2022-10-01T04:08:30.270Z,75.29
2022-10-01T04:09:31.722Z,75.54
2022-10-01T04:10:33.431Z,75.48
2022-10-01T04:11:35.349Z,75.82
2022-10-01T04:12:37.071Z,75.69
2022-10-01T04:13:38.525Z,75.48
2022-10-01T04:14:40.007Z,75.47
2022-10-01T04:15:41.519Z,75.10
2022-10-01T04:16:43.413Z,75.46
2022-10-01T04:17:46.145Z,75.95
2022-10-01T04:18:47.676Z,76.10
2022-10-01T04:19:49.319Z,76.11
2022-10-01T04:20:51.039Z,76.73
2022-10-01T04:21:52.507Z,76.39
2022-10-01T04:22:54.246Z,76.34
2022-10-01T04:23:55.783Z,76.22
2022-10-01T04:24:57.239Z,75.91
2022-10-01T04:25:59.868Z,75.98
2022-10-01T04:27:01.332Z,75.74
2022-10-01T04:28:03.803Z,75.43
2022-10-01T04:29:05.319Z,76.18
2022-10-01T04:30:07.846Z,76.03
2022-10-01T04:31:24.605Z,76.60
2022-10-01T04:32:26.281Z,76.62
2022-10-01T04:33:27.747Z,76.65
2022-10-01T04:34:48.118Z,76.41
2022-10-01T04:35:49.738Z,76.33
2022-10-01T04:36:51.231Z,76.09
2022-10-01T04:37:59.181Z,76.22
2022-10-01T04:39:02.576Z,76.07
2022-10-01T04:40:05.014Z,75.52
2022-10-01T04:41:06.550Z,76.03
2022-10-01T04:42:08.167Z,75.82
2022-10-01T04:43:09.778Z,76.09
2022-10-01T04:44:11.240Z,75.68
2022-10-01T04:45:13.510Z,75.85
2022-10-01T04:46:15.103Z,75.66
2022-10-01T04:47:16.630Z,75.97
2022-10-01T04:48:18.118Z,76.45
2022-10-01T04:49:19.611Z,76.20
2022-10-01T04:50:21.771Z,76.32
2022-10-01T04:51:24.575Z,76.21
2022-10-01T04:52:26.474Z,75.98
2022-10-01T04:53:28.363Z,76.14
2022-10-01T04:54:29.866Z,76.44
2022-10-01T04:55:31.339Z,76.51
2022-10-01T04:56:32.781Z,76.47
2022-10-01T04:57:34.488Z,75.96
2022-10-01T04:58:36.023Z,75.86
2022-10-01T04:59:37.499Z,76.52
2022-10-01T05:00:38.991Z,77.20
2022-10-01T05:01:41.897Z,77.03
2022-10-01T05:02:44.632Z,76.94
2022-10-01T05:03:47.438Z,76.54
2022-10-01T05:04:49.018Z,76.17
2022-10-01T05:05:50.564Z,76.50
2022-10-01T05:06:52.144Z,76.35
2022-10-01T05:07:53.758Z,76.59
2022-10-01T05:08:55.231Z,76.66
2022-10-01T05:09:56.815Z,76.71
2022-10-01T05:11:01.030Z,76.88
2022-10-01T05:12:02.551Z,76.46
2022-10-01T05:13:04.077Z,76.91
2022-10-01T05:14:05.546Z,77.56
2022-10-01T05:15:07.367Z,77.46
2022-10-01T05:16:08.937Z,77.02
2022-10-01T05:17:10.457Z,77.18
2022-10-01T05:18:11.903Z,77.27
2022-10-01T05:19:14.243Z,77.91
2022-10-01T05:20:19.183Z,78.07
2022-10-01T05:21:20.864Z,77.55
2022-10-01T05:22:22.578Z,77.79
2022-10-01T05:23:24.044Z,78.20
2022-10-01T05:24:26.141Z,78.00
2022-10-01T05:25:27.717Z,78.37
2022-10-01T05:26:32.052Z,78.21
2022-10-01T05:27:37.771Z,78.43
2022-10-01T05:28:44.393Z,78.03
2022-10-01T05:29:46.887Z,77.52
2022-10-01T05:30:48.381Z,78.36
2022-10-01T05:31:50.363Z,78.67
2022-10-01T05:32:55.519Z,79.03
2022-10-01T05:33:57.262Z,79.75
2022-10-01T05:34:58.731Z,80.52
2022-10-01T05:36:00.927Z,80.50
2022-10-01T05:37:02.902Z,80.36
2022-10-01T05:38:04.452Z,80.13
2022-10-01T05:39:05.972Z,80.08
2022-10-01T05:40:07.500Z,80.36
2022-10-01T05:41:09.023Z,80.47
2022-10-01T05:42:10.494Z,80.10
2022-10-01T05:43:12.138Z,80.44
2022-10-01T05:44:13.633Z,80.62
2022-10-01T05:45:15.104Z,79.93
2022-10-01T05:46:16.699Z,80.14
2022-10-01T05:47:18.438Z,79.48
2022-10-01T05:48:19.900Z,79.40
2022-10-01T05:49:24.272Z,78.93
2022-10-01T05:50:25.859Z,79.33
2022-10-01T05:51:27.426Z,79.25
2022-10-01T05:52:28.892Z,78.90
2022-10-01T05:53:30.366Z,79.01
2022-10-01T05:54:31.842Z,79.12
2022-10-01T05:55:34.507Z,78.73
2022-10-01T05:56:36.848Z,78.75
2022-10-01T05:57:38.889Z,78.49
2022-10-01T05:58:40.388Z,78.50
2022-10-01T05:59:41.873Z,78.17
2022-10-01T06:00:43.421Z,78.20
2022-10-01T06:01:44.977Z,78.13
2022-10-01T06:02:49.986Z,78.17
2022-10-01T06:03:52.248Z,78.49
2022-10-01T06:04:53.762Z,78.01
2022-10-01T06:05:55.655Z,78.50
2022-10-01T06:06:57.232Z,78.37
2022-10-01T06:07:58.714Z,78.60
2022-10-01T06:09:00.215Z,78.19
2022-10-01T06:10:01.655Z,78.76
2022-10-01T06:11:03.291Z,78.82
2022-10-01T06:12:05.536Z,78.50
2022-10-01T06:13:07.162Z,78.43
2022-10-01T06:14:08.611Z,78.51
2022-10-01T06:15:10.479Z,78.97
2022-10-01T06:16:12.621Z,79.64
2022-10-01T06:17:14.129Z,79.45
2022-10-01T06:18:15.583Z,79.35
2022-10-01T06:19:17.465Z,79.38
2022-10-01T06:20:20.599Z,79.79
2022-10-01T06:21:22.055Z,79.17
2022-10-01T06:22:23.603Z,79.49
2022-10-01T06:23:25.067Z,79.31
2022-10-01T06:24:26.767Z,79.96
2022-10-01T06:25:31.623Z,79.41
2022-10-01T06:26:33.071Z,79.29
2022-10-01T06:27:34.547Z,79.22
2022-10-01T06:28:36.067Z,79.13
2022-10-01T06:29:37.834Z,79.18
2022-10-01T06:30:39.986Z,78.60
2022-10-01T06:31:41.851Z,78.78
2022-10-01T06:32:43.339Z,79.28
2022-10-01T06:33:44.870Z,79.31
2022-10-01T06:34:46.359Z,79.74
2022-10-01T06:35:48.800Z,79.41
2022-10-01T06:36:50.305Z,79.47
2022-10-01T06:37:51.776Z,79.86
2022-10-01T06:38:53.278Z,79.91
2022-10-01T06:39:54.888Z,80.06
2022-10-01T06:40:58.994Z,80.09
2022-10-01T06:42:00.545Z,79.88
2022-10-01T06:43:01.992Z,79.52
2022-10-01T06:44:03.479Z,79.96
2022-10-01T06:45:05.181Z,79.84
2022-10-01T06:46:06.851Z,79.59
2022-10-01T06:47:08.695Z,79.70
2022-10-01T06:48:13.900Z,80.23
2022-10-01T06:49:15.728Z,80.37
2022-10-01T06:50:17.235Z,80.73
2022-10-01T06:51:38.706Z,80.56
2022-10-01T06:52:49.302Z,80.44
2022-10-01T06:53:50.790Z,80.16
2022-10-01T06:54:52.307Z,80.06
2022-10-01T06:55:53.859Z,80.66
2022-10-01T06:56:55.320Z,80.72
2022-10-01T06:58:03.425Z,80.40
2022-10-01T06:59:04.992Z,80.73
2022-10-01T07:00:06.674Z,80.92
2022-10-01T07:01:08.277Z,80.63
2022-10-01T07:02:15.129Z,80.15
2022-10-01T07:03:17.475Z,80.28
2022-10-01T07:04:19.213Z,80.50
2022-10-01T07:05:20.647Z,80.37
2022-10-01T07:06:22.086Z,79.89
2022-10-01T07:07:28.158Z,79.66
2022-10-01T07:08:31.407Z,79.61
2022-10-01T07:09:32.946Z,79.44
2022-10-01T07:10:34.901Z,79.14
2022-10-01T07:11:36.845Z,79.31
2022-10-01T07:12:38.383Z,79.73
2022-10-01T07:13:39.883Z,79.11
2022-10-01T07:14:41.463Z,79.36
2022-10-01T07:15:42.975Z,78.89
2022-10-01T07:16:44.546Z,78.73
2022-10-01T07:17:47.040Z,78.94
2022-10-01T07:18:48.506Z,79.05
2022-10-01T07:19:50.002Z,78.76
2022-10-01T07:20:51.554Z,78.92
2022-10-01T07:21:53.060Z,78.84
2022-10-01T07:22:58.097Z,79.23
2022-10-01T07:23:59.623Z,78.96
2022-10-01T07:25:01.074Z,79.06
2022-10-01T07:26:06.002Z,78.98
2022-10-01T07:27:07.693Z,79.41
2022-10-01T07:28:16.113Z,79.63
2022-10-01T07:29:17.891Z,80.33
2022-10-01T07:30:19.372Z,80.42
2022-10-01T07:31:20.844Z,80.65
2022-10-01T07:32:22.343Z,80.59
2022-10-01T07:33:23.833Z,80.85
2022-10-01T07:34:25.975Z,81.23
2022-10-01T07:35:28.545Z,81.33
2022-10-01T07:36:30.915Z,81.48
2022-10-01T07:37:32.361Z,81.55
2022-10-01T07:38:33.883Z,81.64
2022-10-01T07:39:35.890Z,81.70
2022-10-01T07:40:37.390Z,81.54
2022-10-01T07:41:38.955Z,81.50
2022-10-01T07:42:41.090Z,81.34
2022-10-01T07:43:43.860Z,82.08
2022-10-01T07:44:45.355Z,82.76
2022-10-01T07:45:47.347Z,82.50
2022-10-01T07:46:48.923Z,82.45
2022-10-01T07:47:56.806Z,82.67
2022-10-01T07:48:58.287Z,82.33
2022-10-01T07:49:59.783Z,82.63
2022-10-01T07:51:01.415Z,82.51
2022-10-01T07:52:02.871Z,82.94
2022-10-01T07:53:04.650Z,83.50
2022-10-01T07:54:06.115Z,84.16
2022-10-01T07:55:10.992Z,84.35
2022-10-01T07:56:12.494Z,84.31
2022-10-01T07:57:14.386Z,84.54
2022-10-01T07:58:15.959Z,84.14
2022-10-01T07:59:18.038Z,84.09
2022-10-01T08:00:19.646Z,84.36
2022-10-01T08:01:21.173Z,84.82
2022-10-01T08:02:22.848Z,84.68
2022-10-01T08:03:24.687Z,84.31
2022-10-01T08:04:44.506Z,83.74
2022-10-01T08:05:46.761Z,83.26
2022-10-01T08:06:49.063Z,83.13
2022-10-01T08:07:50.674Z,83.26
2022-10-01T08:08:52.123Z,82.92
2022-10-01T08:09:53.610Z,82.51
2022-10-01T08:10:55.067Z,82.37
2022-10-01T08:11:56.512Z,82.09
2022-10-01T08:13:01.480Z,81.93
2022-10-01T08:14:04.639Z,82.11
2022-10-01T08:15:08.486Z,82.11
2022-10-01T08:16:11.803Z,82.45
2022-10-01T08:17:13.634Z,81.99
2022-10-01T08:18:15.121Z,81.59
2022-10-01T08:19:16.644Z,82.01
2022-10-01T08:20:18.178Z,81.53
2022-10-01T08:21:19.764Z,81.52
2022-10-01T08:22:21.197Z,81.53
2022-10-01T08:23:22.732Z,81.58
2022-10-01T08:24:24.927Z,81.61
2022-10-01T08:25:26.372Z,81.45
2022-10-01T08:26:27.943Z,81.58
2022-10-01T08:27:29.415Z,81.61
2022-10-01T08:28:30.942Z,81.31
2022-10-01T08:29:34.338Z,81.10
2022-10-01T08:30:36.480Z,81.15
2022-10-01T08:31:38.292Z,80.87
2022-10-01T08:32:39.996Z,80.90
2022-10-01T08:33:41.419Z,80.29
2022-10-01T08:34:42.898Z,80.65
2022-10-01T08:35:44.518Z,80.63
2022-10-01T08:36:50.992Z,79.99
2022-10-01T08:37:52.500Z,79.99
2022-10-01T08:38:53.963Z,80.14
2022-10-01T08:39:55.805Z,80.57
2022-10-01T08:40:57.231Z,80.74
2022-10-01T08:42:01.648Z,80.56
2022-10-01T08:43:06.118Z,80.72
2022-10-01T08:44:07.611Z,80.21
2022-10-01T08:45:11.612Z,80.45
2022-10-01T08:46:13.986Z,80.58
2022-10-01T08:47:24.859Z,80.25
2022-10-01T08:48:58.664Z,80.65
2022-10-01T08:50:00.792Z,80.08
2022-10-01T08:51:04.958Z,80.38
2022-10-01T08:52:13.310Z,80.01
2022-10-01T08:53:18.523Z,79.92
2022-10-01T08:54:22.797Z,79.71
2022-10-01T08:55:24.875Z,79.67
2022-10-01T08:56:30.554Z,80.37
2022-10-01T08:57:39.506Z,79.96
2022-10-01T08:58:42.251Z,80.07
2022-10-01T08:59:44.273Z,79.73
2022-10-01T09:00:45.955Z,79.50
2022-10-01T09:01:48.528Z,79.75
2022-10-01T09:02:50.435Z,79.86
2022-10-01T09:03:51.971Z,79.36
2022-10-01T09:04:58.899Z,79.45
2022-10-01T09:06:10.669Z,79.27
2022-10-01T09:07:22.857Z,79.24
2022-10-01T09:08:24.280Z,79.06
2022-10-01T09:09:29.761Z,78.93
2022-10-01T09:10:43.381Z,79.07
2022-10-01T09:11:44.876Z,78.89
2022-10-01T09:12:52.131Z,78.78
2022-10-01T09:13:54.424Z,78.88
2022-10-01T09:15:01.878Z,78.94
2022-10-01T09:16:06.661Z,78.82
2022-10-01T09:17:10.864Z,78.80
2022-10-01T09:18:19.006Z,78.45
2022-10-01T09:19:26.122Z,78.83
2022-10-01T09:20:29.511Z,79.17
2022-10-01T09:21:49.047Z,78.76
2022-10-01T09:23:03.967Z,78.83
2022-10-01T09:24:15.585Z,78.73
2022-10-01T09:25:19.791Z,78.88
2022-10-01T09:26:25.533Z,79.22
2022-10-01T09:27:27.350Z,79.10
2022-10-01T09:28:29.776Z,79.48
2022-10-01T09:29:32.952Z,79.38
2022-10-01T09:30:34.419Z,79.17
2022-10-01T09:31:37.442Z,79.51
2022-10-01T09:32:41.423Z,79.39
2022-10-01T09:33:44.502Z,79.57
2022-10-01T09:34:46.008Z,79.48
2022-10-01T09:35:54.635Z,79.32
2022-10-01T09:37:05.664Z,79.38
2022-10-01T09:38:20.723Z,79.29
2022-10-01T09:39:26.606Z,79.52
2022-10-01T09:40:49.254Z,79.59
2022-10-01T09:41:50.837Z,79.80
2022-10-01T09:42:52.300Z,79.78
2022-10-01T09:43:53.739Z,79.94
2022-10-01T09:44:55.762Z,80.14
2022-10-01T09:45:57.782Z,80.21
2022-10-01T09:46:59.257Z,79.87
2022-10-01T09:48:05.195Z,79.69
2022-10-01T09:49:11.428Z,79.69
2022-10-01T09:50:13.739Z,79.54
2022-10-01T09:51:15.218Z,79.16
2022-10-01T09:52:19.186Z,79.21
2022-10-01T09:53:21.103Z,79.21
2022-10-01T09:54:43.216Z,79.01
2022-10-01T09:55:45.207Z,79.19
2022-10-01T09:56:48.395Z,78.72
2022-10-01T09:57:53.816Z,79.03
2022-10-01T09:58:56.406Z,78.75
2022-10-01T10:00:00.758Z,79.05
2022-10-01T10:01:02.240Z,79.11
2022-10-01T10:02:04.412Z,79.20
2022-10-01T10:03:06.060Z,78.98
2022-10-01T10:04:07.698Z,79.10
2022-10-01T10:05:10.455Z,78.95
2022-10-01T10:06:12.496Z,79.20
2022-10-01T10:07:15.668Z,79.00
2022-10-01T10:08:30.360Z,79.16
2022-10-01T10:09:32.424Z,79.48
2022-10-01T10:10:36.916Z,79.15
2022-10-01T10:11:38.375Z,78.87
2022-10-01T10:12:39.962Z,78.78
2022-10-01T10:13:42.155Z,78.38
2022-10-01T10:14:44.887Z,78.49
2022-10-01T10:15:49.804Z,78.57
2022-10-01T10:16:51.345Z,78.32
2022-10-01T10:17:52.955Z,78.43
2022-10-01T10:18:56.651Z,78.37
2022-10-01T10:19:58.155Z,78.27
2022-10-01T10:20:59.625Z,78.37
2022-10-01T10:22:11.121Z,78.26
2022-10-01T10:23:16.451Z,78.26
2022-10-01T10:24:26.503Z,78.72
2022-10-01T10:25:28.024Z,78.69
2022-10-01T10:26:35.658Z,78.48
2022-10-01T10:27:37.421Z,78.49
2022-10-01T10:28:43.427Z,78.65
2022-10-01T10:29:45.594Z,78.75
2022-10-01T10:30:47.159Z,78.89
2022-10-01T10:31:51.076Z,78.56
2022-10-01T10:32:52.861Z,78.74
2022-10-01T10:34:00.904Z,78.57
2022-10-01T10:35:04.776Z,78.35
2022-10-01T10:36:06.356Z,78.22
2022-10-01T10:37:14.728Z,78.29
2022-10-01T10:38:19.198Z,78.34
2022-10-01T10:39:30.548Z,78.38
2022-10-01T10:40:42.230Z,78.57
2022-10-01T10:41:43.953Z,78.78
2022-10-01T10:42:49.020Z,78.86
2022-10-01T10:43:50.624Z,78.99
2022-10-01T10:44:52.845Z,78.58
2022-10-01T10:45:57.373Z,78.43
2022-10-01T10:47:03.375Z,78.25
2022-10-01T10:48:05.443Z,78.36
2022-10-01T10:49:15.859Z,78.24
2022-10-01T10:50:25.717Z,77.70
2022-10-01T10:51:28.322Z,77.86
2022-10-01T10:52:30.630Z,77.96
2022-10-01T10:53:44.930Z,77.75
2022-10-01T10:54:49.944Z,77.74
2022-10-01T10:55:55.425Z,77.61
2022-10-01T10:57:00.827Z,77.52
2022-10-01T10:58:12.031Z,77.16
2022-10-01T10:59:13.506Z,77.23
2022-10-01T11:00:16.480Z,77.43
2022-10-01T11:01:20.148Z,77.15
2022-10-01T11:02:21.720Z,77.14
2022-10-01T11:03:26.684Z,76.79
2022-10-01T11:04:30.811Z,76.72
2022-10-01T11:05:32.979Z,76.76
2022-10-01T11:06:34.653Z,76.97
2022-10-01T11:07:36.278Z,76.79
2022-10-01T11:08:37.999Z,76.83
2022-10-01T11:09:40.155Z,77.02
2022-10-01T11:10:53.796Z,76.81
2022-10-01T11:11:55.975Z,76.71
2022-10-01T11:13:03.354Z,77.12
2022-10-01T11:14:13.820Z,76.99
2022-10-01T11:15:20.918Z,77.02
2022-10-01T11:16:48.871Z,77.19
2022-10-01T11:17:55.271Z,77.05
2022-10-01T11:19:01.363Z,76.97
2022-10-01T11:20:22.692Z,76.66
2022-10-01T11:21:24.107Z,77.06
2022-10-01T11:22:44.491Z,77.11
2022-10-01T11:23:50.423Z,76.98
2022-10-01T11:24:59.000Z,77.17
2022-10-01T11:26:10.708Z,77.06
2022-10-01T11:27:12.531Z,76.89
2022-10-01T11:28:25.943Z,76.94
2022-10-01T11:29:36.780Z,76.58
2022-10-01T11:30:41.918Z,76.59
2022-10-01T11:31:43.375Z,76.55
2022-10-01T11:32:46.094Z,76.12
2022-10-01T11:33:50.552Z,76.04
2022-10-01T11:35:05.070Z,76.16
2022-10-01T11:36:16.657Z,76.13
2022-10-01T11:37:33.011Z,76.00
2022-10-01T11:38:41.895Z,75.54
2022-10-01T11:39:43.403Z,75.80
2022-10-01T11:41:07.857Z,75.98
2022-10-01T11:42:19.711Z,75.70
2022-10-01T11:43:22.499Z,76.11
2022-10-01T11:44:29.127Z,75.99
2022-10-01T11:45:32.060Z,75.75
2022-10-01T11:46:36.454Z,75.90
2022-10-01T11:47:40.174Z,75.83
2022-10-01T11:48:43.210Z,75.76
2022-10-01T11:49:50.647Z,75.84
2022-10-01T11:50:52.895Z,74.80
2022-10-01T11:51:59.868Z,74.97
2022-10-01T11:53:04.504Z,75.35
2022-10-01T11:54:07.202Z,75.30
2022-10-01T11:55:40.170Z,74.89
2022-10-01T11:57:08.275Z,75.16
2022-10-01T11:58:35.995Z,75.02
2022-10-01T11:59:38.545Z,75.19
2022-10-01T12:00:40.217Z,74.90
2022-10-01T12:01:41.709Z,74.80
2022-10-01T12:03:03.787Z,74.78
2022-10-01T12:04:07.392Z,74.86
2022-10-01T12:05:28.071Z,74.69
2022-10-01T12:06:53.127Z,74.77
2022-10-01T12:08:04.387Z,74.72
2022-10-01T12:09:20.941Z,74.34
2022-10-01T12:10:34.559Z,74.65
2022-10-01T12:11:37.372Z,75.18
2022-10-01T12:12:40.636Z,74.86
2022-10-01T12:13:47.746Z,74.95
2022-10-01T12:14:51.025Z,74.92
2022-10-01T12:15:52.480Z,74.79
2022-10-01T12:16:55.190Z,74.87
2022-10-01T12:18:07.795Z,74.76
2022-10-01T12:19:12.687Z,74.64
2022-10-01T12:20:27.885Z,74.56
2022-10-01T12:21:32.805Z,74.68
2022-10-01T12:22:36.253Z,74.66
2022-10-01T12:23:44.119Z,74.77
2022-10-01T12:24:45.989Z,74.89
2022-10-01T12:25:51.295Z,74.46
2022-10-01T12:26:55.199Z,74.32
2022-10-01T12:28:05.538Z,74.24
2022-10-01T12:29:31.009Z,74.29
2022-10-01T12:30:35.654Z,74.27
2022-10-01T12:31:41.876Z,74.18
2022-10-01T12:33:18.645Z,74.37
2022-10-01T12:34:22.362Z,74.19
2022-10-01T12:35:35.722Z,74.39
2022-10-01T12:37:15.667Z,74.28
2022-10-01T12:38:19.768Z,74.28
2022-10-01T12:39:23.691Z,74.35
2022-10-01T12:40:33.246Z,74.27
2022-10-01T12:41:42.034Z,74.02
2022-10-01T12:42:59.879Z,74.16
2022-10-01T12:44:21.476Z,74.24
2022-10-01T12:45:43.217Z,74.06
2022-10-01T12:46:50.320Z,74.40
2022-10-01T12:47:51.727Z,74.45
2022-10-01T12:48:54.808Z,74.52
2022-10-01T12:50:08.450Z,74.64
2022-10-01T12:51:28.843Z,74.46
2022-10-01T12:52:33.875Z,74.44
2022-10-01T12:53:54.078Z,74.50
2022-10-01T12:54:55.574Z,75.00
2022-10-01T12:55:58.620Z,75.55
2022-10-01T12:57:00.046Z,74.72
2022-10-01T12:58:07.458Z,74.92
2022-10-01T12:59:09.544Z,74.92
2022-10-01T13:00:16.836Z,74.69
2022-10-01T13:01:18.709Z,74.39
2022-10-01T13:02:20.293Z,74.94
2022-10-01T13:03:24.748Z,75.05
2022-10-01T13:04:35.186Z,74.24
2022-10-01T13:05:45.513Z,74.00
2022-10-01T13:07:07.915Z,73.11
2022-10-01T13:08:18.493Z,73.50
2022-10-01T13:09:25.178Z,73.64
2022-10-01T13:10:44.655Z,73.75
2022-10-01T13:11:46.110Z,73.02
2022-10-01T13:12:58.827Z,71.63
2022-10-01T13:14:00.934Z,71.37
2022-10-01T13:15:03.158Z,71.21
2022-10-01T13:16:07.302Z,72.24
2022-10-01T13:17:13.684Z,72.00
2022-10-01T13:18:19.722Z,71.48
2022-10-01T13:19:39.968Z,71.38
2022-10-01T13:20:44.579Z,70.70
2022-10-01T13:22:07.723Z,71.44
2022-10-01T13:23:11.327Z,71.41
2022-10-01T13:24:16.303Z,70.82
2022-10-01T13:25:20.938Z,72.60
2022-10-01T13:26:26.596Z,72.05
2022-10-01T13:27:33.984Z,70.40
2022-10-01T13:29:04.587Z,70.65
2022-10-01T13:30:06.243Z,71.05
2022-10-01T13:31:11.655Z,71.03
2022-10-01T13:32:32.245Z,69.72
2022-10-01T13:33:36.106Z,69.48
2022-10-01T13:34:38.577Z,69.86
2022-10-01T13:35:40.045Z,69.96
2022-10-01T13:36:41.539Z,70.68
2022-10-01T13:37:43.764Z,69.23
2022-10-01T13:38:46.099Z,69.70
2022-10-01T13:39:47.572Z,70.31
2022-10-01T13:40:56.852Z,69.42
2022-10-01T13:41:58.722Z,68.56
2022-10-01T13:43:03.628Z,67.67
2022-10-01T13:44:08.394Z,68.66
2022-10-01T13:45:20.911Z,68.83
2022-10-01T13:46:22.371Z,68.39
2022-10-01T13:47:24.082Z,67.53
2022-10-01T13:48:26.495Z,67.44
2022-10-01T13:49:28.739Z,67.82
2022-10-01T13:50:30.323Z,68.39
2022-10-01T13:51:38.055Z,68.36